Time;durP1;ratioP1;P1;durP2;ratioP2;P2;SDS_P1;SDS_P2;PMS_P1;PMS_P2;Temp;Humidity;BMP_temperature;BMP_pressure;BME280_temperature;BME280_humidity;BME280_pressure;Samples;Min_cycle;Max_cycle;Signal;HPM_P1;HPM_P2
2022/03/22 00:00:09;;;;;;;34.80;24.60;;;8.20;99.90;;;;;;5050635;28;20204;-64
2022/03/22 00:02:42;;;;;;;31.67;23.27;;;8.10;99.90;;;;;;5050681;28;20273;-64
2022/03/22 00:05:11;;;;;;;34.20;23.30;;;8.10;99.90;;;;;;5060216;28;20189;-64
2022/03/22 00:07:37;;;;;;;35.47;24.43;;;8.00;99.90;;;;;;5060217;28;20642;-65
2022/03/22 00:10:05;;;;;;;29.53;21.70;;;8.00;99.90;;;;;;5061968;28;20615;-65
2022/03/22 00:12:49;;;;;;;34.00;22.43;;;8.00;99.90;;;;;;5052893;28;20179;-66
2022/03/22 00:15:19;;;;;;;32.40;23.37;;;8.00;99.90;;;;;;5062677;28;20515;-65
2022/03/22 00:18:06;;;;;;;33.87;23.70;;;7.90;99.90;;;;;;5049627;28;20203;-66
2022/03/22 00:20:35;;;;;;;38.93;24.30;;;7.90;99.90;;;;;;5062918;28;20202;-65
2022/03/22 00:23:04;;;;;;;37.40;24.70;;;7.80;99.90;;;;;;5059279;28;21074;-65
2022/03/22 00:25:33;;;;;;;34.00;24.10;;;7.70;99.90;;;;;;5051114;28;20214;-65
2022/03/22 00:28:01;;;;;;;35.53;23.00;;;7.80;99.90;;;;;;5059752;28;20599;-65
2022/03/22 00:30:32;;;;;;;37.17;24.47;;;7.70;99.90;;;;;;5060847;28;20290;-65
2022/03/22 00:33:02;;;;;;;35.90;23.53;;;7.30;1.00;;;;;;5057558;28;20294;-66
2022/03/22 00:35:34;;;;;;;36.70;23.57;;;7.20;1.00;;;;;;5066024;28;20199;-64
2022/03/22 00:38:04;;;;;;;32.97;23.50;;;7.20;1.00;;;;;;5062592;28;20741;-65
2022/03/22 00:40:36;;;;;;;34.97;24.37;;;7.10;1.00;;;;;;5074888;28;20200;-65
2022/03/22 00:43:06;;;;;;;31.17;22.83;;;7.10;1.00;;;;;;5045773;28;20244;-65
2022/03/22 00:45:39;;;;;;;32.70;23.00;;;7.00;1.00;;;;;;5059787;28;20215;-65
2022/03/22 00:48:13;;;;;;;32.43;23.37;;;7.00;1.00;;;;;;5043961;28;20195;-64
2022/03/22 00:50:43;;;;;;;39.17;22.17;;;7.00;1.00;;;;;;5060397;28;20219;-64
2022/03/22 00:53:13;;;;;;;34.23;22.37;;;6.90;1.00;;;;;;5065938;28;20195;-64
2022/03/22 00:55:41;;;;;;;33.67;20.37;;;7.00;1.00;;;;;;5060987;28;20195;-64
2022/03/22 00:58:08;;;;;;;31.27;21.67;;;7.10;1.00;;;;;;5049804;28;20609;-64
2022/03/22 01:00:35;;;;;;;31.83;20.57;;;7.00;1.00;;;;;;5062270;28;20237;-65
2022/03/22 01:03:05;;;;;;;30.37;21.73;;;7.10;1.00;;;;;;5055987;28;20762;-65
2022/03/22 01:05:34;;;;;;;28.73;20.93;;;7.00;1.00;;;;;;5054604;28;20211;-65
2022/03/22 01:08:06;;;;;;;31.27;21.20;;;7.10;1.00;;;;;;5064115;28;20199;-64
2022/03/22 01:10:36;;;;;;;26.90;20.97;;;7.10;1.00;;;;;;5062724;28;20213;-64
2022/03/22 01:13:06;;;;;;;32.77;22.17;;;7.00;1.00;;;;;;5062845;28;20188;-65
2022/03/22 01:15:37;;;;;;;33.67;21.73;;;7.00;1.00;;;;;;5065348;28;20199;-64
2022/03/22 01:18:06;;;;;;;31.63;21.90;;;6.90;1.00;;;;;;5052549;28;20202;-64
2022/03/22 01:20:42;;;;;;;32.40;22.63;;;6.90;1.00;;;;;;5062799;28;20183;-64
2022/03/22 01:23:11;;;;;;;30.77;20.93;;;6.80;1.00;;;;;;5061592;28;20222;-64
2022/03/22 01:25:39;;;;;;;32.63;21.33;;;6.70;1.00;;;;;;5053751;28;20622;-64
2022/03/22 01:28:08;;;;;;;34.77;23.27;;;6.60;1.00;;;;;;5048895;28;20211;-64
2022/03/22 01:30:36;;;;;;;29.83;20.90;;;6.60;1.00;;;;;;5053865;28;20257;-64
2022/03/22 01:33:08;;;;;;;30.57;21.83;;;6.60;1.00;;;;;;5065499;28;20211;-64
2022/03/22 01:35:41;;;;;;;29.33;20.37;;;6.60;1.00;;;;;;5047630;28;20231;-63
2022/03/22 01:38:08;;;;;;;31.23;21.93;;;6.60;1.00;;;;;;5063405;28;20241;-65
2022/03/22 01:40:37;;;;;;;31.33;21.87;;;6.60;1.00;;;;;;5054884;28;20207;-64
2022/03/22 01:43:05;;;;;;;29.63;21.13;;;6.70;1.00;;;;;;5052242;28;20226;-63
2022/03/22 01:45:32;;;;;;;31.00;21.13;;;6.70;1.00;;;;;;5063542;28;20666;-64
2022/03/22 01:48:04;;;;;;;32.43;21.57;;;6.70;1.00;;;;;;5063211;28;20260;-64
2022/03/22 01:50:32;;;;;;;33.43;21.50;;;6.70;1.00;;;;;;5047199;28;20208;-64
2022/03/22 01:53:00;;;;;;;30.23;20.63;;;6.80;1.00;;;;;;5076290;28;20205;-63
2022/03/22 01:55:27;;;;;;;33.87;21.10;;;6.80;1.00;;;;;;5064185;28;20203;-64
2022/03/22 01:57:58;;;;;;;32.47;21.40;;;6.50;1.00;;;;;;5061825;28;20186;-64
2022/03/22 02:00:25;;;;;;;32.63;21.47;;;6.40;1.00;;;;;;5062979;28;20206;-64
2022/03/22 02:05:55;;;;;;;31.53;21.90;;;6.00;1.00;;;;;;5063583;28;20199;-64
2022/03/22 02:08:26;;;;;;;29.83;21.17;;;5.90;1.00;;;;;;5053283;28;20183;-64
2022/03/22 02:10:56;;;;;;;29.17;21.53;;;6.00;1.00;;;;;;5079304;28;20602;-65
2022/03/22 02:13:26;;;;;;;29.27;21.03;;;6.00;1.00;;;;;;5063214;28;20194;-64
2022/03/22 02:15:56;;;;;;;33.53;22.27;;;5.90;1.00;;;;;;5062738;28;20204;-65
2022/03/22 02:18:26;;;;;;;28.10;20.63;;;5.90;1.00;;;;;;5060803;28;20226;-66
2022/03/22 02:20:54;;;;;;;32.17;22.10;;;5.90;1.00;;;;;;5064825;28;20187;-67
2022/03/22 02:23:48;;;;;;;32.90;21.97;;;5.90;1.00;;;;;;5058904;28;20226;-66
2022/03/22 02:26:16;;;;;;;34.07;22.17;;;5.90;1.00;;;;;;5062985;28;20199;-66
2022/03/22 02:28:43;;;;;;;38.57;22.23;;;5.90;1.00;;;;;;5052342;28;20203;-67
2022/03/22 02:31:13;;;;;;;35.67;21.23;;;5.90;1.00;;;;;;5063779;28;20215;-66
2022/03/22 02:33:43;;;;;;;33.07;22.53;;;5.90;1.00;;;;;;5063359;28;20740;-66
2022/03/22 02:36:11;;;;;;;33.53;21.33;;;5.90;1.00;;;;;;5062654;28;20195;-66
2022/03/22 02:38:38;;;;;;;36.00;22.07;;;6.00;1.00;;;;;;5061011;28;20203;-66
2022/03/22 02:41:05;;;;;;;34.70;23.60;;;6.00;1.00;;;;;;5062900;28;20215;-66
2022/03/22 02:43:36;;;;;;;35.57;22.67;;;6.00;1.00;;;;;;5071191;28;20239;-66
2022/03/22 02:46:03;;;;;;;38.20;21.97;;;6.00;1.00;;;;;;5063818;28;20201;-64
2022/03/22 02:48:30;;;;;;;33.53;22.77;;;5.80;1.00;;;;;;5053691;28;20265;-65
2022/03/22 02:50:57;;;;;;;38.33;21.10;;;5.80;1.00;;;;;;5052507;28;20211;-66
2022/03/22 02:53:26;;;;;;;30.60;21.53;;;5.80;1.00;;;;;;5063925;28;20226;-65
2022/03/22 02:55:54;;;;;;;29.17;20.93;;;5.80;1.00;;;;;;5063289;28;20199;-65
2022/03/22 02:58:20;;;;;;;28.73;20.73;;;5.70;1.00;;;;;;5061364;28;20210;-63
2022/03/22 03:00:48;;;;;;;35.23;22.33;;;5.80;1.00;;;;;;5062655;28;20199;-64
2022/03/22 03:03:22;;;;;;;32.20;22.37;;;5.70;1.00;;;;;;5062076;28;20261;-64
2022/03/22 03:05:51;;;;;;;31.57;21.40;;;5.70;1.00;;;;;;5061756;28;20194;-64
2022/03/22 03:08:18;;;;;;;35.53;22.13;;;5.70;1.00;;;;;;5060920;28;20198;-64
2022/03/22 03:10:46;;;;;;;34.63;21.53;;;5.80;1.00;;;;;;5069055;28;20210;-64
2022/03/22 03:13:13;;;;;;;32.87;22.03;;;5.80;1.00;;;;;;5062086;28;20196;-64
2022/03/22 03:15:40;;;;;;;31.73;21.40;;;5.70;1.00;;;;;;5049186;28;20203;-64
2022/03/22 03:18:08;;;;;;;29.57;21.27;;;5.50;1.00;;;;;;5049233;28;20219;-64
2022/03/22 03:20:37;;;;;;;30.77;22.33;;;5.50;1.00;;;;;;5062906;28;20638;-64
2022/03/22 03:23:04;;;;;;;28.50;20.93;;;5.50;1.00;;;;;;5061879;28;21140;-64
2022/03/22 03:25:35;;;;;;;35.13;20.87;;;5.50;1.00;;;;;;5062829;28;20274;-64
2022/03/22 03:28:02;;;;;;;30.87;21.07;;;5.50;1.00;;;;;;5046061;28;20558;-65
2022/03/22 03:30:30;;;;;;;30.73;21.17;;;5.50;1.00;;;;;;5050780;28;20670;-64
2022/03/22 03:32:59;;;;;;;40.23;21.90;;;5.60;1.00;;;;;;5061122;28;20269;-63
2022/03/22 03:35:27;;;;;;;32.83;21.83;;;5.60;1.00;;;;;;5045632;28;20207;-64
2022/03/22 03:37:59;;;;;;;32.07;21.60;;;5.50;1.00;;;;;;5051243;28;20549;-63
2022/03/22 03:41:53;;;;;;;30.67;21.30;;;5.50;1.00;;;;;;5051672;28;20203;-63
2022/03/22 03:43:12;;;;;;;30.03;21.40;;;5.40;1.00;;;;;;5062863;28;20239;-64
2022/03/22 03:48:25;;;;;;;31.00;21.07;;;5.30;1.00;;;;;;5062003;28;20202;-65
2022/03/22 03:50:52;;;;;;;30.33;20.17;;;5.30;1.00;;;;;;5062561;28;20211;-64
2022/03/22 03:53:23;;;;;;;30.97;20.37;;;5.30;1.00;;;;;;5060040;28;20210;-65
2022/03/22 03:55:50;;;;;;;29.60;20.80;;;5.30;1.00;;;;;;5061613;28;20642;-64
2022/03/22 03:58:17;;;;;;;34.23;21.23;;;5.30;1.00;;;;;;5060490;28;20217;-64
2022/03/22 04:00:44;;;;;;;29.27;20.40;;;5.30;1.00;;;;;;5061764;28;20222;-64
2022/03/22 04:03:11;;;;;;;27.93;20.30;;;5.30;1.00;;;;;;5059605;28;20206;-64
2022/03/22 04:05:38;;;;;;;32.17;21.33;;;5.30;1.00;;;;;;5044809;28;20580;-64
2022/03/22 04:08:08;;;;;;;33.87;21.77;;;5.30;1.00;;;;;;5064564;28;20245;-64
2022/03/22 04:10:35;;;;;;;28.67;20.47;;;5.30;1.00;;;;;;5048189;28;20569;-63
2022/03/22 04:13:02;;;;;;;28.77;19.63;;;5.30;1.00;;;;;;5056426;28;20215;-64
2022/03/22 04:15:31;;;;;;;27.93;19.83;;;5.30;1.00;;;;;;5065236;28;20187;-64
2022/03/22 04:17:59;;;;;;;34.37;21.30;;;5.20;1.00;;;;;;5079399;28;20253;-63
2022/03/22 04:20:26;;;;;;;25.27;19.23;;;5.20;1.00;;;;;;5064910;28;20191;-63
2022/03/22 04:23:10;;;;;;;30.17;21.00;;;5.30;1.00;;;;;;5062110;28;20261;-64
2022/03/22 04:25:55;;;;;;;32.07;20.27;;;5.30;1.00;;;;;;5060315;28;20171;-63
2022/03/22 04:34:14;;;;;;;30.73;20.80;;;;;;;;;;5063953;28;20302;-62
2022/03/22 04:36:44;;;;;;;32.73;19.93;;;;;;;;;;5051028;28;20206;-62
2022/03/22 04:39:16;;;;;;;34.67;22.07;;;4.50;40.10;;;;;;5049469;28;20202;-64
2022/03/22 04:41:43;;;;;;;27.73;20.10;;;4.50;54.50;;;;;;5059874;28;20256;-62
2022/03/22 04:44:16;;;;;;;32.90;22.07;;;4.50;25.80;;;;;;5061798;28;20219;-62
2022/03/22 04:46:45;;;;;;;34.07;21.70;;;;;;;;;;5077869;28;20191;-63
2022/03/22 04:49:15;;;;;;;30.47;19.73;;;4.50;1.00;;;;;;5069509;28;20207;-62
2022/03/22 04:57:16;;;;;;;34.30;23.47;;;4.60;1.00;;;;;;5066133;28;20650;-64
2022/03/22 04:59:44;;;;;;;34.97;22.13;;;4.60;1.00;;;;;;5069998;28;20199;-63
2022/03/22 05:02:11;;;;;;;32.57;22.10;;;4.60;1.00;;;;;;5066007;28;20202;-63
2022/03/22 05:04:38;;;;;;;31.77;22.63;;;4.50;1.00;;;;;;5062859;28;20300;-62
2022/03/22 05:07:07;;;;;;;31.07;20.83;;;4.50;1.00;;;;;;5067319;28;20285;-63
2022/03/22 05:09:35;;;;;;;35.90;22.40;;;4.40;1.00;;;;;;5049233;28;20191;-63
2022/03/22 05:12:02;;;;;;;33.43;21.33;;;4.40;1.00;;;;;;5059720;28;20233;-62
2022/03/22 05:14:29;;;;;;;31.37;21.57;;;4.40;1.00;;;;;;5050843;28;20241;-63
2022/03/22 05:16:58;;;;;;;36.83;22.03;;;4.30;1.00;;;;;;5045451;28;20270;-63
2022/03/22 05:19:26;;;;;;;31.50;21.20;;;4.20;10.40;;;;;;5046449;28;20206;-64
2022/03/22 05:21:53;;;;;;;30.23;20.60;;;4.20;5.20;;;;;;5069396;28;20213;-63
2022/03/22 05:24:20;;;;;;;32.57;21.80;;;4.30;1.00;;;;;;5053003;28;20247;-63
2022/03/22 05:26:51;;;;;;;31.03;21.93;;;4.10;50.60;;;;;;5066192;28;20309;-62
2022/03/22 05:29:18;;;;;;;35.63;22.40;;;4.00;99.90;;;;;;5046993;28;20217;-63
2022/03/22 05:31:48;;;;;;;31.37;21.60;;;4.10;50.00;;;;;;5070634;28;20334;-63
2022/03/22 05:34:17;;;;;;;31.53;21.43;;;4.20;1.00;;;;;;5066810;28;20290;-63
2022/03/22 05:36:47;;;;;;;34.03;21.80;;;4.40;1.00;;;;;;5069200;28;20195;-63
2022/03/22 05:39:13;;;;;;;32.40;22.43;;;4.50;1.00;;;;;;5069302;28;20210;-65
2022/03/22 05:41:40;;;;;;;38.47;22.27;;;4.60;1.00;;;;;;5062274;28;20615;-64
2022/03/22 05:44:13;;;;;;;34.23;21.83;;;4.70;1.00;;;;;;5061530;28;20241;-64
2022/03/22 05:46:40;;;;;;;31.90;21.00;;;4.90;1.00;;;;;;5067492;28;20195;-64
2022/03/22 05:49:09;;;;;;;32.20;21.83;;;5.00;1.00;;;;;;5060958;28;20203;-64
2022/03/22 05:51:36;;;;;;;28.60;21.73;;;5.20;1.00;;;;;;5062115;28;20271;-63
2022/03/22 05:54:03;;;;;;;34.33;21.90;;;5.30;1.00;;;;;;5046752;28;20199;-64
2022/03/22 05:56:31;;;;;;;32.77;21.57;;;5.50;1.00;;;;;;5052779;28;20207;-64
2022/03/22 05:58:59;;;;;;;29.47;20.10;;;5.60;99.90;;;;;;5060978;28;20607;-64
2022/03/22 06:01:28;;;;;;;29.73;21.20;;;5.70;99.90;;;;;;5046691;28;20290;-64
2022/03/22 06:03:55;;;;;;;29.13;20.97;;;5.90;99.90;;;;;;5061954;28;20195;-64
2022/03/22 06:06:24;;;;;;;29.30;20.57;;;6.10;99.90;;;;;;5046913;28;20562;-64
2022/03/22 06:08:51;;;;;;;30.20;20.20;;;6.90;99.90;;;;;;5063794;28;20277;-64
2022/03/22 06:11:20;;;;;;;36.50;20.10;;;7.60;1.00;;;;;;5058552;28;21167;-64
2022/03/22 06:13:47;;;;;;;30.57;19.27;;;8.40;1.00;;;;;;5076154;28;20306;-64
2022/03/22 06:16:16;;;;;;;29.17;19.33;;;8.60;1.00;;;;;;5052331;28;20313;-64
2022/03/22 06:18:45;;;;;;;30.33;19.80;;;8.80;99.90;;;;;;5077780;28;20229;-64
2022/03/22 06:21:12;;;;;;;25.80;19.07;;;8.40;99.90;;;;;;5065621;28;20206;-64
2022/03/22 06:23:42;;;;;;;26.80;19.33;;;8.20;1.00;;;;;;5064906;28;20207;-64
2022/03/22 06:26:08;;;;;;;28.77;18.73;;;8.40;1.00;;;;;;5061469;28;20221;-64
2022/03/22 06:28:35;;;;;;;30.10;18.30;;;9.20;99.90;;;;;;5065229;28;20604;-64
2022/03/22 06:31:04;;;;;;;27.57;18.67;;;10.80;28.40;;;;;;5060544;28;20290;-64
2022/03/22 06:33:32;;;;;;;25.70;18.10;;;11.00;1.00;;;;;;5063630;28;20215;-64
2022/03/22 06:35:59;;;;;;;24.50;18.93;;;11.10;1.00;;;;;;5061453;28;20273;-64
2022/03/22 06:38:32;;;;;;;25.43;18.40;;;11.50;1.00;;;;;;5065216;28;20191;-64
2022/03/22 06:40:59;;;;;;;25.67;17.77;;;12.30;1.00;;;;;;5060698;28;20187;-65
2022/03/22 06:43:26;;;;;;;25.87;19.20;;;13.00;1.00;;;;;;5047366;28;20275;-65
2022/03/22 06:45:53;;;;;;;29.97;18.63;;;13.60;1.00;;;;;;5052885;28;20221;-63
2022/03/22 06:48:22;;;;;;;24.63;17.60;;;13.20;1.00;;;;;;5070976;28;20254;-63
2022/03/22 06:50:49;;;;;;;22.40;16.93;;;13.10;1.00;;;;;;5066864;28;20196;-64
2022/03/22 06:53:17;;;;;;;24.97;18.10;;;12.70;1.00;;;;;;5064900;28;20609;-63
2022/03/22 06:55:45;;;;;;;24.73;17.70;;;12.80;1.00;;;;;;5063876;28;20252;-64
2022/03/22 06:58:14;;;;;;;24.97;18.23;;;12.30;1.00;;;;;;5067590;28;20681;-63
2022/03/22 07:00:41;;;;;;;25.43;18.13;;;12.30;1.00;;;;;;5062799;28;20626;-63
2022/03/22 07:03:08;;;;;;;24.57;17.73;;;12.70;1.00;;;;;;5061079;28;20666;-63
2022/03/22 07:05:36;;;;;;;22.55;16.92;;;13.80;1.00;;;;;;5068588;28;20202;-64
2022/03/22 07:08:03;;;;;;;20.98;16.75;;;16.70;1.00;;;;;;5060654;28;20211;-64
2022/03/22 07:10:33;;;;;;;23.90;17.75;;;15.50;1.00;;;;;;5052203;28;20198;-64
2022/03/22 07:13:04;;;;;;;25.10;17.83;;;17.70;1.00;;;;;;5044086;28;20609;-64
2022/03/22 07:15:35;;;;;;;24.08;17.60;;;18.90;99.90;;;;;;5061567;28;20275;-64
2022/03/22 07:18:06;;;;;;;20.30;16.80;;;18.70;99.90;;;;;;5052860;28;20704;-64
2022/03/22 07:20:35;;;;;;;23.27;17.38;;;19.30;99.90;;;;;;5059739;28;20193;-64
2022/03/22 07:23:03;;;;;;;20.92;17.48;;;19.40;99.90;;;;;;5064976;28;20211;-64
2022/03/22 07:25:32;;;;;;;19.05;17.10;;;20.40;99.90;;;;;;5050683;28;20256;-64
2022/03/22 07:28:03;;;;;;;23.00;17.42;;;20.10;99.90;;;;;;5051340;28;20617;-64
2022/03/22 07:30:32;;;;;;;21.80;16.73;;;21.00;99.90;;;;;;5060005;28;20218;-65
2022/03/22 07:33:04;;;;;;;20.13;17.38;;;20.80;99.90;;;;;;5046575;28;20314;-64
2022/03/22 07:35:32;;;;;;;24.20;17.92;;;20.70;99.90;;;;;;5062106;28;20206;-64
2022/03/22 07:37:59;;;;;;;22.95;16.88;;;20.90;99.90;;;;;;5061546;28;20219;-64
2022/03/22 07:40:26;;;;;;;19.83;16.58;;;21.10;99.90;;;;;;5061599;28;20228;-64
2022/03/22 07:42:53;;;;;;;20.40;16.23;;;21.40;99.90;;;;;;5060085;28;20234;-64
2022/03/22 07:45:20;;;;;;;21.73;16.85;;;21.40;99.90;;;;;;5060259;28;20261;-64
2022/03/22 07:47:48;;;;;;;19.40;16.67;;;22.50;99.90;;;;;;5061308;28;20253;-64
2022/03/22 07:53:01;;;;;;;21.70;16.48;;;23.60;99.90;;;;;;5061290;28;20207;-64
2022/03/22 07:55:32;;;;;;;16.85;15.10;;;24.60;99.90;;;;;;5062501;28;20199;-66
2022/03/22 07:57:59;;;;;;;17.88;15.63;;;25.00;99.90;;;;;;5043936;28;20206;-64
2022/03/22 08:00:28;;;;;;;21.75;15.20;;;25.80;99.90;;;;;;5060575;28;21726;-64
2022/03/22 08:02:58;;;;;;;16.65;14.50;;;25.80;99.90;;;;;;5061323;28;20199;-64
2022/03/22 08:05:26;;;;;;;17.98;14.93;;;26.70;99.90;;;;;;5044496;28;20206;-64
2022/03/22 08:07:54;;;;;;;15.95;14.27;;;26.80;99.90;;;;;;5063096;28;20207;-65
2022/03/22 08:10:25;;;;;;;15.75;14.05;;;26.60;99.90;;;;;;5064785;28;20209;-65
2022/03/22 08:12:54;;;;;;;17.80;14.13;;;27.70;99.90;;;;;;5043293;28;20716;-64
2022/03/22 08:15:21;;;;;;;16.50;14.20;;;27.90;99.90;;;;;;5042835;28;20273;-64
2022/03/22 08:17:48;;;;;;;17.35;14.20;;;27.40;99.90;;;;;;5077598;28;21261;-64
2022/03/22 08:20:15;;;;;;;15.30;13.65;;;28.10;99.90;;;;;;5058362;28;21295;-64
2022/03/22 08:22:50;;;;;;;16.52;13.65;;;28.50;99.90;;;;;;5065120;28;20225;-64
2022/03/22 08:25:36;;;;;;;15.43;13.55;;;27.50;99.90;;;;;;5064553;28;20654;-64
2022/03/22 08:28:10;;;;;;;15.85;13.63;;;26.70;99.90;;;;;;5047511;28;20202;-64
2022/03/22 08:30:39;;;;;;;16.30;14.20;;;27.20;99.90;;;;;;5063001;28;20215;-64
2022/03/22 08:33:09;;;;;;;14.27;12.77;;;27.90;99.90;;;;;;5063230;28;20219;-64
2022/03/22 08:35:47;;;;;;;18.30;14.30;;;30.20;99.90;;;;;;5060480;28;20191;-65
2022/03/22 08:38:16;;;;;;;15.15;13.38;;;26.80;99.90;;;;;;5063227;28;20609;-64
2022/03/22 08:40:43;;;;;;;17.02;13.65;;;26.20;99.90;;;;;;5046741;28;20199;-64
2022/03/22 08:43:10;;;;;;;15.73;13.55;;;24.50;99.90;;;;;;5062659;28;20242;-64
2022/03/22 08:45:37;;;;;;;15.60;13.57;;;24.60;99.90;;;;;;5069505;28;20598;-64
2022/03/22 08:48:11;;;;;;;15.15;13.48;;;24.80;99.90;;;;;;5070611;28;20234;-64
2022/03/22 08:50:49;;;;;;;17.60;13.43;;;23.60;99.90;;;;;;5064774;28;20260;-64
2022/03/22 08:53:19;;;;;;;17.17;12.95;;;24.20;99.90;;;;;;5068196;28;20241;-64
2022/03/22 08:55:51;;;;;;;15.35;12.80;;;24.20;99.90;;;;;;5065341;28;20199;-65
2022/03/22 08:58:18;;;;;;;16.55;12.63;;;26.30;99.90;;;;;;5065863;28;20226;-65
2022/03/22 09:00:45;;;;;;;12.45;11.07;;;30.90;99.90;;;;;;5063189;28;20245;-63
2022/03/22 09:03:13;;;;;;;14.52;11.57;;;32.40;99.90;;;;;;5062044;28;20253;-64
2022/03/22 09:08:26;;;;;;;12.65;11.32;;;26.60;99.90;;;;;;5060332;28;20261;-63
2022/03/22 09:10:53;;;;;;;12.73;10.98;;;28.10;99.90;;;;;;5061600;28;20722;-64
2022/03/22 09:13:22;;;;;;;12.60;11.32;;;27.70;99.90;;;;;;5063215;28;20218;-63
2022/03/22 09:15:53;;;;;;;15.65;11.55;;;25.10;99.90;;;;;;5062059;28;20198;-63
2022/03/22 09:18:24;;;;;;;13.70;11.80;;;28.50;99.90;;;;;;5049881;28;20195;-62
2022/03/22 09:20:54;;;;;;;16.70;12.32;;;27.40;99.90;;;;;;5073050;28;20544;-62
2022/03/22 09:23:21;;;;;;;13.52;11.27;;;27.30;99.90;;;;;;5040650;28;20651;-62
2022/03/22 09:25:51;;;;;;;13.32;11.27;;;29.30;99.90;;;;;;5068361;28;20227;-63
2022/03/22 09:28:18;;;;;;;14.82;11.30;;;26.90;99.90;;;;;;5062038;28;20203;-62
2022/03/22 09:30:48;;;;;;;12.68;10.45;;;28.90;99.90;;;;;;5054703;28;20226;-62
2022/03/22 09:33:16;;;;;;;14.95;11.48;;;27.70;99.90;;;;;;5058454;28;20261;-62
2022/03/22 09:35:43;;;;;;;13.15;11.52;;;25.60;99.90;;;;;;5062195;28;20221;-62
2022/03/22 09:38:15;;;;;;;13.95;12.25;;;25.90;99.90;;;;;;5059177;28;20195;-62
2022/03/22 09:40:42;;;;;;;14.93;12.45;;;26.60;99.90;;;;;;5046163;28;20199;-62
2022/03/22 09:43:10;;;;;;;15.35;11.90;;;27.00;99.90;;;;;;5061305;28;20623;-63
2022/03/22 09:45:43;;;;;;;14.05;12.55;;;29.20;99.90;;;;;;5051147;28;20739;-64
2022/03/22 09:48:16;;;;;;;13.55;12.15;;;30.90;99.90;;;;;;5058597;28;20278;-63
2022/03/22 09:53:31;;;;;;;14.45;12.95;;;34.20;99.90;;;;;;5057003;28;20203;-64
2022/03/22 09:55:58;;;;;;;14.35;12.18;;;33.50;99.90;;;;;;5044740;28;20192;-63
2022/03/22 09:58:28;;;;;;;15.95;11.88;;;33.50;99.90;;;;;;5055121;28;20199;-64
2022/03/22 10:00:55;;;;;;;14.10;12.10;;;33.70;99.90;;;;;;5057978;28;20273;-64
2022/03/22 10:03:22;;;;;;;12.98;11.38;;;35.00;99.90;;;;;;5062437;28;20260;-64
2022/03/22 10:06:01;;;;;;;13.13;11.13;;;35.50;99.90;;;;;;5061873;28;20739;-63
2022/03/22 10:08:29;;;;;;;15.68;11.55;;;34.00;99.90;;;;;;5073293;28;20194;-63
2022/03/22 10:10:58;;;;;;;14.77;13.05;;;34.40;99.90;;;;;;5050580;28;20203;-63
2022/03/22 10:13:25;;;;;;;14.73;12.75;;;31.40;99.90;;;;;;5062011;28;20211;-64
2022/03/22 10:16:04;;;;;;;13.98;12.50;;;30.90;99.90;;;;;;5059089;28;20658;-63
2022/03/22 10:18:37;;;;;;;15.52;12.77;;;31.30;99.90;;;;;;5045558;28;20191;-64
2022/03/22 10:21:05;;;;;;;14.63;12.18;;;29.70;99.90;;;;;;5060302;28;20195;-64
2022/03/22 10:23:33;;;;;;;16.00;13.15;;;31.00;99.90;;;;;;5058285;28;20260;-63
2022/03/22 10:26:08;;;;;;;14.70;11.77;;;29.80;99.90;;;;;;5059038;28;20690;-63
2022/03/22 10:28:38;;;;;;;13.77;12.32;;;30.50;99.90;;;;;;5046638;28;20294;-63
2022/03/22 10:31:07;;;;;;;13.65;11.48;;;33.90;99.90;;;;;;5059282;28;20194;-64
2022/03/22 10:33:51;;;;;;;13.38;11.80;;;30.50;99.90;;;;;;5040691;28;20208;-64
2022/03/22 10:36:21;;;;;;;12.52;11.32;;;31.40;99.90;;;;;;5059416;28;20667;-63
2022/03/22 10:39:01;;;;;;;12.73;11.52;;;33.30;99.90;;;;;;5046290;28;20226;-63
2022/03/22 10:41:37;;;;;;;15.63;12.07;;;35.10;99.90;;;;;;5060564;28;20289;-64
2022/03/22 10:44:10;;;;;;;21.70;12.25;;;35.00;99.90;;;;;;5061317;28;20238;-64
2022/03/22 10:46:43;;;;;;;13.82;12.27;;;34.60;99.90;;;;;;5059003;28;20606;-64
2022/03/22 10:49:15;;;;;;;14.18;12.05;;;34.20;99.90;;;;;;5064394;28;20246;-64
2022/03/22 10:51:49;;;;;;;14.80;13.13;;;34.20;99.90;;;;;;5046690;28;20220;-65
2022/03/22 10:54:19;;;;;;;13.65;11.40;;;34.10;99.90;;;;;;5057948;28;20274;-65
2022/03/22 10:56:50;;;;;;;13.07;11.80;;;34.70;99.90;;;;;;5056099;28;20286;-63
2022/03/22 10:59:20;;;;;;;15.60;12.82;;;32.30;99.90;;;;;;5063785;28;20218;-64
2022/03/22 11:01:50;;;;;;;14.43;11.00;;;31.20;99.90;;;;;;5058008;28;20207;-64
2022/03/22 11:04:20;;;;;;;17.80;12.32;;;30.60;99.90;;;;;;5046353;28;20206;-64
2022/03/22 11:06:47;;;;;;;15.40;12.38;;;28.50;99.90;;;;;;5041473;28;20223;-64
2022/03/22 11:09:20;;;;;;;15.27;12.95;;;27.70;99.90;;;;;;5062952;28;20679;-63
2022/03/22 11:11:50;;;;;;;13.73;12.30;;;29.00;99.90;;;;;;5039896;28;20211;-64
2022/03/22 11:14:18;;;;;;;14.07;12.45;;;28.30;99.90;;;;;;5049571;28;20301;-63
2022/03/22 11:16:50;;;;;;;13.95;12.50;;;28.10;99.90;;;;;;5060250;28;20211;-64
2022/03/22 11:19:21;;;;;;;16.27;11.30;;;29.90;99.90;;;;;;5059209;28;20187;-63
2022/03/22 11:21:48;;;;;;;16.77;10.45;;;29.80;99.90;;;;;;5058011;28;20246;-63
2022/03/22 11:24:22;;;;;;;15.15;11.65;;;;;;;;;;5041068;28;20860;-63
2022/03/22 11:26:57;;;;;;;17.75;10.80;;;30.20;99.90;;;;;;5059030;28;20205;-64
2022/03/22 11:29:25;;;;;;;12.27;11.00;;;30.70;99.90;;;;;;5049801;28;20213;-63
2022/03/22 11:34:41;;;;;;;14.63;11.85;;;30.30;99.90;;;;;;5054276;28;20574;-64
2022/03/22 11:37:09;;;;;;;14.57;11.93;;;28.90;99.90;;;;;;5058119;28;20184;-64
2022/03/22 11:42:24;;;;;;;15.98;11.57;;;28.00;99.90;;;;;;5059103;28;20227;-64
2022/03/22 11:45:07;;;;;;;14.63;11.18;;;27.70;99.90;;;;;;5056559;28;20747;-63
2022/03/22 11:47:42;;;;;;;15.95;11.40;;;26.30;99.90;;;;;;5062568;28;20188;-63
2022/03/22 11:50:16;;;;;;;15.95;9.95;;;25.30;99.90;;;;;;5044943;28;20195;-63
2022/03/22 11:52:48;;;;;;;18.67;11.60;;;25.10;99.90;;;;;;5059618;28;20211;-63
2022/03/22 11:55:22;;;;;;;17.77;10.52;;;25.90;99.90;;;;;;5059384;28;20512;-63
2022/03/22 11:58:01;;;;;;;15.73;9.65;;;26.30;99.90;;;;;;5056701;28;20199;-63
2022/03/22 12:00:46;;;;;;;16.45;9.02;;;25.10;99.90;;;;;;5058691;28;20191;-63
2022/03/22 12:03:15;;;;;;;15.93;8.63;;;24.30;99.90;;;;;;5055994;28;20206;-63
2022/03/22 12:05:43;;;;;;;24.75;9.55;;;25.30;99.90;;;;;;5059138;28;20565;-64
2022/03/22 12:08:15;;;;;;;13.25;9.60;;;25.40;99.90;;;;;;5047142;28;20767;-63
2022/03/22 12:10:46;;;;;;;14.40;10.32;;;25.20;99.90;;;;;;5062790;28;20187;-63
2022/03/22 12:13:14;;;;;;;17.48;9.70;;;24.80;99.90;;;;;;5058635;28;20199;-63
2022/03/22 12:15:47;;;;;;;18.80;9.57;;;24.60;99.90;;;;;;5064159;28;20653;-63
2022/03/22 12:18:15;;;;;;;17.98;9.82;;;24.80;99.90;;;;;;5058419;28;20191;-63
2022/03/22 12:20:43;;;;;;;15.50;10.63;;;25.70;99.90;;;;;;5060005;28;20677;-64
2022/03/22 12:23:10;;;;;;;15.00;10.95;;;25.30;99.90;;;;;;5063934;28;20212;-63
2022/03/22 12:25:37;;;;;;;16.35;10.15;;;23.80;99.90;;;;;;5065733;28;20188;-63
2022/03/22 12:28:11;;;;;;;14.48;10.45;;;24.40;99.90;;;;;;5059567;28;20191;-62
2022/03/22 12:30:41;;;;;;;13.38;10.25;;;24.20;99.90;;;;;;5058165;28;20229;-62
2022/03/22 12:33:14;;;;;;;15.75;9.63;;;24.40;99.90;;;;;;5059699;28;20187;-62
2022/03/22 12:35:46;;;;;;;17.25;10.80;;;23.60;99.90;;;;;;5052378;28;20188;-62
2022/03/22 12:38:18;;;;;;;15.38;11.35;;;23.10;99.90;;;;;;5051852;28;22771;-62
2022/03/22 12:40:46;;;;;;;14.15;10.48;;;22.90;99.90;;;;;;5033191;28;20559;-62
2022/03/22 12:43:19;;;;;;;20.38;10.82;;;23.00;99.90;;;;;;5043135;28;20456;-62
2022/03/22 12:45:48;;;;;;;19.27;11.65;;;22.80;99.90;;;;;;5063884;28;20269;-61
2022/03/22 12:48:20;;;;;;;19.00;10.68;;;23.00;99.90;;;;;;5064400;28;20206;-62
2022/03/22 12:50:49;;;;;;;21.48;11.30;;;22.40;99.90;;;;;;5046921;28;20253;-62
2022/03/22 12:53:17;;;;;;;20.60;11.40;;;21.40;99.90;;;;;;5057062;28;20198;-63
2022/03/22 12:55:44;;;;;;;17.48;12.02;;;21.80;99.90;;;;;;5048761;28;20223;-62
2022/03/22 12:58:11;;;;;;;16.83;11.00;;;22.00;99.90;;;;;;5061128;28;20249;-62
2022/03/22 13:00:41;;;;;;;15.32;11.05;;;21.30;99.90;;;;;;5044698;28;20577;-62
2022/03/22 13:03:20;;;;;;;16.55;10.50;;;21.40;99.90;;;;;;5052730;28;20679;-62
2022/03/22 13:05:53;;;;;;;13.90;8.20;;;21.30;99.90;;;;;;5071106;28;20332;-62
2022/03/22 13:08:26;;;;;;;14.77;8.60;;;20.90;99.90;;;;;;5058186;28;20211;-62
2022/03/22 13:16:30;;;;;;;14.55;9.95;;;20.00;99.90;;;;;;5061722;28;20191;-62
2022/03/22 13:18:59;;;;;;;17.92;9.20;;;20.00;1.00;;;;;;5046527;28;20191;-62
2022/03/22 13:21:32;;;;;;;15.23;10.05;;;20.10;99.90;;;;;;5062127;28;20254;-63
2022/03/22 13:24:08;;;;;;;11.73;9.75;;;19.90;99.90;;;;;;5058658;28;20453;-63
2022/03/22 13:26:39;;;;;;;14.70;10.55;;;20.00;99.90;;;;;;5042989;28;20209;-63